Kimberley, South Africa
Current Conditions -  °F | °C
As of 12:00 PM on Saturday 25 Oct 2014 (Local Time) from FAKM Reporting Station
Clear Clear  
Wind Chill: 86°   Ceiling: Unl
Heat Index: 86°   Visibility: 6mi
Dew Point: 37°   Wind: 13mph
Humidity: 18%   Direction: 330°NNW
Pressure: 30"   Gusts: NA
Location:  28.75°S, 24.77°E
Report Text: FAKM 251000Z 33011KT CAVOK 30/03 Q1016
Loading
Personal Weather Stations






























Interactive Weather Map
Tropical Storm Tracking
New forecast layout! Learn more

10-Day Weather Forecast

Advertisements
Track Severe Weather on mobile